RJNG(METAR)
12/04 21:00
METAR RJNG 041200Z 30007KT 9999 FEW030 BKN180 BKN/// 10/01 Q1021 RMK
1CU030 6AC180 A3017=
戻る
トップページへ戻る
IMOC Co,.Ltd.